createdAt,value
2019-02-25T00:00:27.512Z,4.40
2019-02-25T00:02:56.955Z,4.40
2019-02-25T00:05:26.408Z,4.40
2019-02-25T00:07:55.895Z,4.40
2019-02-25T00:10:25.388Z,4.40
2019-02-25T00:12:54.825Z,4.40
2019-02-25T00:15:24.292Z,4.40
2019-02-25T00:17:53.732Z,4.40
2019-02-25T00:20:23.195Z,4.40
2019-02-25T00:22:52.703Z,4.40
2019-02-25T00:25:22.121Z,4.40
2019-02-25T00:27:51.576Z,4.40
2019-02-25T00:30:21.042Z,4.40
2019-02-25T00:32:50.478Z,4.40
2019-02-25T00:35:20.041Z,4.40
2019-02-25T00:37:49.531Z,4.40
2019-02-25T00:40:18.971Z,4.40
2019-02-25T00:42:48.402Z,4.40
2019-02-25T00:45:17.901Z,4.40
2019-02-25T00:47:47.343Z,4.40
2019-02-25T00:50:16.872Z,4.30
2019-02-25T00:52:46.361Z,4.30
2019-02-25T00:55:15.908Z,4.30
2019-02-25T00:57:45.355Z,4.30
2019-02-25T01:00:15.951Z,4.30
2019-02-25T01:02:45.550Z,4.30
2019-02-25T01:05:16.514Z,4.30
2019-02-25T01:07:46.095Z,4.30
2019-02-25T01:10:16.551Z,4.30
2019-02-25T01:12:46.386Z,4.30
2019-02-25T01:15:16.699Z,4.20
2019-02-25T01:17:46.133Z,4.20
2019-02-25T01:20:15.559Z,4.20
2019-02-25T01:22:45.935Z,4.20
2019-02-25T01:25:15.596Z,4.20
2019-02-25T01:27:45.918Z,4.20
2019-02-25T01:30:15.564Z,4.10
2019-02-25T01:32:45.027Z,4.10
2019-02-25T01:35:14.649Z,4.10
2019-02-25T01:37:44.088Z,4.10
2019-02-25T01:40:13.532Z,4.10
2019-02-25T01:42:43.020Z,4.10
2019-02-25T01:45:12.880Z,4.10
2019-02-25T01:47:42.324Z,4.00
2019-02-25T01:50:11.994Z,4.10
2019-02-25T01:52:41.467Z,4.10
2019-02-25T01:55:10.931Z,4.00
2019-02-25T01:57:40.375Z,4.00
2019-02-25T02:00:12.828Z,4.00
2019-02-25T02:02:42.272Z,4.00
2019-02-25T02:05:12.120Z,4.00
2019-02-25T02:07:41.635Z,4.00
2019-02-25T02:10:12.173Z,4.00
2019-02-25T02:12:41.622Z,4.00
2019-02-25T02:15:13.456Z,4.00
2019-02-25T02:17:42.900Z,4.00
2019-02-25T02:20:14.298Z,4.00
2019-02-25T02:22:43.772Z,4.00
2019-02-25T02:25:13.264Z,3.90
2019-02-25T02:27:42.697Z,3.90
2019-02-25T02:30:15.037Z,3.90
2019-02-25T02:32:44.497Z,3.90
2019-02-25T02:35:13.950Z,3.90
2019-02-25T02:37:43.419Z,3.90
2019-02-25T02:40:13.487Z,3.90
2019-02-25T02:42:45.137Z,3.90
2019-02-25T02:45:21.706Z,3.90
2019-02-25T02:47:54.048Z,3.90
2019-02-25T02:50:25.400Z,3.80
2019-02-25T02:52:54.868Z,3.90
2019-02-25T02:55:24.330Z,3.80
2019-02-25T02:57:53.824Z,3.80
2019-02-25T03:00:23.292Z,3.80
2019-02-25T03:02:52.779Z,3.80
2019-02-25T03:05:22.249Z,3.80
2019-02-25T03:07:51.699Z,3.80
2019-02-25T03:10:21.151Z,3.80
2019-02-25T03:12:50.620Z,3.80
2019-02-25T03:15:21.589Z,3.80
2019-02-25T03:17:51.022Z,3.80
2019-02-25T03:20:20.534Z,3.80
2019-02-25T03:22:49.954Z,3.80
2019-02-25T03:25:19.535Z,3.70
2019-02-25T03:27:49.025Z,3.70
2019-02-25T03:30:20.366Z,3.70
2019-02-25T03:32:49.838Z,3.70
2019-02-25T03:35:19.309Z,3.70
2019-02-25T03:37:48.759Z,3.70
2019-02-25T03:40:19.952Z,3.70
2019-02-25T03:42:49.477Z,3.60
2019-02-25T03:45:19.818Z,3.60
2019-02-25T03:47:49.323Z,3.60
2019-02-25T03:50:18.767Z,3.60
2019-02-25T03:52:48.233Z,3.50
2019-02-25T03:55:18.252Z,3.50
2019-02-25T03:57:47.820Z,3.50
2019-02-25T04:00:19.280Z,3.50
2019-02-25T04:02:48.756Z,3.40
2019-02-25T04:05:18.444Z,3.40
2019-02-25T04:07:47.899Z,3.30
2019-02-25T04:10:17.354Z,3.30
2019-02-25T04:12:46.838Z,3.30
2019-02-25T04:15:20.065Z,3.20
2019-02-25T04:17:49.584Z,3.20
2019-02-25T04:20:19.025Z,3.20
2019-02-25T04:22:48.501Z,3.20
2019-02-25T04:25:17.981Z,3.10
2019-02-25T04:27:47.451Z,3.10
2019-02-25T04:30:16.941Z,3.10
2019-02-25T04:32:46.463Z,3.10
2019-02-25T04:35:16.053Z,3.10
2019-02-25T04:37:45.509Z,3.10
2019-02-25T04:40:15.208Z,3.00
2019-02-25T04:42:44.596Z,3.00
2019-02-25T04:45:16.044Z,2.90
2019-02-25T04:47:45.548Z,2.90
2019-02-25T04:50:15.022Z,2.90
2019-02-25T04:52:44.468Z,2.80
2019-02-25T04:55:15.775Z,2.80
2019-02-25T04:57:45.238Z,2.80
2019-02-25T05:00:16.360Z,2.80
2019-02-25T05:02:45.833Z,2.80
2019-02-25T05:05:15.298Z,2.70
2019-02-25T05:07:44.855Z,2.70
2019-02-25T05:10:14.756Z,2.70
2019-02-25T05:12:50.249Z,2.80
2019-02-25T05:15:21.291Z,2.80
2019-02-25T05:17:50.737Z,2.80
2019-02-25T05:20:20.213Z,2.80
2019-02-25T05:22:49.717Z,2.80
2019-02-25T05:25:19.183Z,2.80
2019-02-25T05:27:48.651Z,2.80
2019-02-25T05:30:18.132Z,2.80
2019-02-25T05:32:47.597Z,2.70
2019-02-25T05:35:17.055Z,2.70
2019-02-25T05:37:46.494Z,2.70
2019-02-25T05:40:16.223Z,2.70
2019-02-25T05:42:45.712Z,2.70
2019-02-25T05:45:15.728Z,2.70
2019-02-25T05:47:45.194Z,2.70
2019-02-25T05:50:15.097Z,2.60
2019-02-25T05:52:44.559Z,2.60
2019-02-25T05:55:14.383Z,2.60
2019-02-25T05:57:43.839Z,2.60
2019-02-25T06:00:17.619Z,2.60
2019-02-25T06:02:47.092Z,2.50
2019-02-25T06:05:16.520Z,2.50
2019-02-25T06:07:46.012Z,2.60
2019-02-25T06:10:15.575Z,2.60
2019-02-25T06:12:45.013Z,2.60
2019-02-25T06:15:15.248Z,2.60
2019-02-25T06:17:44.691Z,2.60
2019-02-25T06:20:14.831Z,2.60
2019-02-25T06:22:44.453Z,2.60
2019-02-25T06:25:14.614Z,2.60
2019-02-25T06:27:44.060Z,2.70
2019-02-25T06:30:15.923Z,2.70
2019-02-25T06:32:45.371Z,2.70
2019-02-25T06:35:14.943Z,2.80
2019-02-25T06:37:44.471Z,2.80
2019-02-25T06:40:15.793Z,2.80
2019-02-25T06:42:45.881Z,2.80
2019-02-25T06:45:16.911Z,2.90
2019-02-25T06:47:46.399Z,2.90
2019-02-25T06:50:15.846Z,2.90
2019-02-25T06:52:45.340Z,2.90
2019-02-25T06:55:15.343Z,2.90
2019-02-25T06:57:44.895Z,3.00
2019-02-25T07:00:16.282Z,3.00
2019-02-25T07:02:45.762Z,3.00
2019-02-25T07:05:29.903Z,3.00
2019-02-25T07:08:04.087Z,3.00
2019-02-25T07:10:52.495Z,3.00
2019-02-25T07:13:44.885Z,3.00
2019-02-25T07:16:39.438Z,3.00
2019-02-25T07:19:18.221Z,3.00
2019-02-25T07:22:21.740Z,3.00
2019-02-25T07:25:10.104Z,3.10
2019-02-25T07:28:10.748Z,3.10
2019-02-25T07:30:50.747Z,3.10
2019-02-25T07:33:50.955Z,3.10
2019-02-25T07:36:38.954Z,3.20
2019-02-25T07:39:28.967Z,3.20
2019-02-25T07:42:23.060Z,3.20
2019-02-25T07:45:01.348Z,3.30
2019-02-25T07:48:01.731Z,3.30
2019-02-25T07:50:53.148Z,3.30
2019-02-25T07:53:32.279Z,3.40
2019-02-25T07:56:23.260Z,3.40
2019-02-25T07:59:07.444Z,3.40
2019-02-25T08:02:01.903Z,3.50
2019-02-25T08:04:41.304Z,3.50
2019-02-25T08:07:18.891Z,3.50
2019-02-25T08:09:56.069Z,3.60
2019-02-25T08:12:44.164Z,3.60
2019-02-25T08:15:23.157Z,3.60
2019-02-25T08:18:10.345Z,3.70
2019-02-25T08:20:49.583Z,3.70
2019-02-25T08:23:44.080Z,3.80
2019-02-25T08:26:32.460Z,3.70
2019-02-25T08:29:24.003Z,3.80
2019-02-25T08:32:27.440Z,3.90
2019-02-25T08:35:11.528Z,3.90
2019-02-25T08:38:16.953Z,4.00
2019-02-25T08:41:13.435Z,4.10
2019-02-25T08:44:01.809Z,4.10
2019-02-25T08:46:50.252Z,4.20
2019-02-25T08:49:47.429Z,4.20
2019-02-25T08:52:16.937Z,4.20
2019-02-25T08:54:46.416Z,4.20
2019-02-25T08:57:15.859Z,4.20
2019-02-25T08:59:45.345Z,4.30
2019-02-25T09:02:14.803Z,4.30
2019-02-25T09:04:44.256Z,4.30
2019-02-25T09:07:13.759Z,4.30
2019-02-25T09:09:43.235Z,4.40
2019-02-25T09:12:12.720Z,4.40
2019-02-25T09:14:42.187Z,4.50
2019-02-25T09:17:11.655Z,4.60
2019-02-25T09:19:41.111Z,4.70
2019-02-25T09:22:10.616Z,4.70
2019-02-25T09:24:40.882Z,4.60
2019-02-25T09:27:10.483Z,4.50
2019-02-25T09:29:39.999Z,4.50
2019-02-25T09:32:10.679Z,4.40
2019-02-25T09:34:40.183Z,4.50
2019-02-25T09:37:09.704Z,4.50
2019-02-25T09:39:39.205Z,4.60
2019-02-25T09:42:08.680Z,4.60
2019-02-25T09:44:38.135Z,4.60
2019-02-25T09:47:07.621Z,4.70
2019-02-25T09:49:37.063Z,4.70
2019-02-25T09:52:06.575Z,4.80
2019-02-25T09:54:36.016Z,4.90
2019-02-25T09:57:06.152Z,5.00
2019-02-25T09:59:35.644Z,5.00
2019-02-25T10:02:05.084Z,5.10
2019-02-25T10:04:34.532Z,5.20
2019-02-25T10:07:03.991Z,5.20
2019-02-25T10:09:33.493Z,5.30
2019-02-25T10:12:02.936Z,5.30
2019-02-25T10:14:32.427Z,5.30
2019-02-25T10:17:01.901Z,5.40
2019-02-25T10:19:31.408Z,5.50
2019-02-25T10:22:20.622Z,5.50
2019-02-25T10:24:50.201Z,5.60
2019-02-25T10:27:19.631Z,5.70
2019-02-25T10:29:49.143Z,5.70
2019-02-25T10:32:18.587Z,5.70
2019-02-25T10:34:48.050Z,5.80
2019-02-25T10:37:17.527Z,5.80
2019-02-25T10:39:47.986Z,5.90
2019-02-25T10:42:18.127Z,5.90
2019-02-25T10:44:47.621Z,6.00
2019-02-25T10:47:19.328Z,6.00
2019-02-25T10:49:48.200Z,6.10
2019-02-25T10:52:17.739Z,6.20
2019-02-25T10:54:47.867Z,6.20
2019-02-25T10:57:21.978Z,6.30
2019-02-25T10:59:52.072Z,6.40
2019-02-25T11:02:21.541Z,6.50
2019-02-25T11:04:51.485Z,6.60
2019-02-25T11:07:22.128Z,6.60
2019-02-25T11:10:02.303Z,6.60
2019-02-25T11:12:32.144Z,6.60
2019-02-25T11:15:01.822Z,6.60
2019-02-25T11:17:31.285Z,6.50
2019-02-25T11:20:03.169Z,6.50
2019-02-25T11:22:31.841Z,6.40
2019-02-25T11:25:01.535Z,6.40
2019-02-25T11:27:33.066Z,6.40
2019-02-25T11:30:02.156Z,6.40
2019-02-25T11:32:31.592Z,6.60
2019-02-25T11:35:02.077Z,6.70
2019-02-25T11:37:32.124Z,6.90
2019-02-25T11:40:03.891Z,7.00
2019-02-25T11:42:32.748Z,7.00
2019-02-25T11:45:04.411Z,7.10
2019-02-25T11:47:33.350Z,7.10
2019-02-25T11:50:02.824Z,7.10
2019-02-25T11:52:32.260Z,7.20
2019-02-25T11:55:01.790Z,7.30
2019-02-25T11:57:31.249Z,7.40
2019-02-25T12:00:00.710Z,7.50
2019-02-25T12:02:30.244Z,7.50
2019-02-25T12:04:59.784Z,7.50
2019-02-25T12:07:29.239Z,7.50
2019-02-25T12:09:58.725Z,7.50
2019-02-25T12:12:28.228Z,7.50
2019-02-25T12:14:57.835Z,7.50
2019-02-25T12:17:27.317Z,7.50
2019-02-25T12:19:56.813Z,7.50
2019-02-25T12:22:26.215Z,7.60
2019-02-25T12:24:55.699Z,7.70
2019-02-25T12:27:25.178Z,7.70
2019-02-25T12:29:54.629Z,7.80
2019-02-25T12:32:24.127Z,7.90
2019-02-25T12:34:53.606Z,8.00
2019-02-25T12:37:23.043Z,8.10
2019-02-25T12:39:52.539Z,8.10
2019-02-25T12:42:21.984Z,8.10
2019-02-25T12:44:54.489Z,8.20
2019-02-25T12:47:23.944Z,8.30
2019-02-25T12:49:53.409Z,8.40
2019-02-25T12:52:22.939Z,8.50
2019-02-25T12:54:52.462Z,8.60
2019-02-25T12:57:22.071Z,8.60
2019-02-25T12:59:51.539Z,8.60
2019-02-25T13:02:21.016Z,8.60
2019-02-25T13:04:50.468Z,8.70
2019-02-25T13:07:19.922Z,8.80
2019-02-25T13:09:49.433Z,9.00
2019-02-25T13:12:18.966Z,9.20
2019-02-25T13:14:48.467Z,9.30
2019-02-25T13:17:17.929Z,9.40
2019-02-25T13:19:47.385Z,9.40
2019-02-25T13:22:16.877Z,9.50
2019-02-25T13:24:46.332Z,9.40
2019-02-25T13:27:15.798Z,9.40
2019-02-25T13:29:45.248Z,9.40
2019-02-25T13:32:14.722Z,9.40
2019-02-25T13:34:44.169Z,9.30
2019-02-25T13:37:13.656Z,9.30
2019-02-25T13:39:43.107Z,9.20
2019-02-25T13:42:12.578Z,9.00
2019-02-25T13:44:42.089Z,8.90
2019-02-25T13:47:11.554Z,8.80
2019-02-25T13:49:40.992Z,8.70
2019-02-25T13:52:10.911Z,8.70
2019-02-25T13:54:40.424Z,8.70
2019-02-25T13:57:09.901Z,8.70
2019-02-25T13:59:39.346Z,8.70
2019-02-25T14:02:08.788Z,8.80
2019-02-25T14:04:38.232Z,8.70
2019-02-25T14:07:08.109Z,8.70
2019-02-25T14:09:37.815Z,8.60
2019-02-25T14:12:10.364Z,8.60
2019-02-25T14:14:39.820Z,8.60
2019-02-25T14:17:09.327Z,8.60
2019-02-25T14:19:38.792Z,8.60
2019-02-25T14:22:08.241Z,8.60
2019-02-25T14:24:38.519Z,8.50
2019-02-25T14:27:11.786Z,8.50
2019-02-25T14:29:40.743Z,8.40
2019-02-25T14:32:12.373Z,8.30
2019-02-25T14:34:41.924Z,8.30
2019-02-25T14:37:14.429Z,8.20
2019-02-25T14:39:43.908Z,8.20
2019-02-25T14:42:13.367Z,8.10
2019-02-25T14:44:43.884Z,8.00
2019-02-25T14:47:20.514Z,8.00
2019-02-25T14:49:45.044Z,8.00
2019-02-25T14:52:14.805Z,7.90
2019-02-25T14:54:45.920Z,7.90
2019-02-25T14:57:15.376Z,7.90
2019-02-25T14:59:44.906Z,7.90
2019-02-25T15:02:14.365Z,7.90
2019-02-25T15:04:44.002Z,7.90
2019-02-25T15:07:15.189Z,7.90
2019-02-25T15:09:45.748Z,7.80
2019-02-25T15:12:15.290Z,7.90
2019-02-25T15:14:44.831Z,7.80
2019-02-25T15:17:14.890Z,7.80
2019-02-25T15:19:44.691Z,7.80
2019-02-25T15:22:14.175Z,7.70
2019-02-25T15:24:44.502Z,7.70
2019-02-25T15:27:14.729Z,7.70
2019-02-25T15:29:45.168Z,7.70
2019-02-25T15:32:15.955Z,7.60
2019-02-25T15:34:46.462Z,7.60
2019-02-25T15:37:16.747Z,7.60
2019-02-25T15:39:46.221Z,7.50
2019-02-25T15:42:17.056Z,7.50
2019-02-25T15:44:47.198Z,7.40
2019-02-25T15:47:17.889Z,7.40
2019-02-25T15:49:48.068Z,7.30
2019-02-25T15:52:18.815Z,7.30
2019-02-25T15:54:48.628Z,7.30
2019-02-25T15:57:18.082Z,7.30
2019-02-25T15:59:47.580Z,7.30
2019-02-25T16:02:17.043Z,7.20
2019-02-25T16:04:46.564Z,7.20
2019-02-25T16:07:16.048Z,7.20
2019-02-25T16:09:45.944Z,7.10
2019-02-25T16:12:15.456Z,7.10
2019-02-25T16:14:46.588Z,7.10
2019-02-25T16:17:16.059Z,7.10
2019-02-25T16:19:47.589Z,7.00
2019-02-25T16:22:16.677Z,7.00
2019-02-25T16:24:46.151Z,6.90
2019-02-25T16:27:16.799Z,6.90
2019-02-25T16:29:47.039Z,6.80
2019-02-25T16:32:17.070Z,6.80
2019-02-25T16:34:47.204Z,6.70
2019-02-25T16:37:17.659Z,6.60
2019-02-25T16:39:47.803Z,6.50
2019-02-25T16:42:17.248Z,6.50
2019-02-25T16:44:46.762Z,6.40
2019-02-25T16:47:18.164Z,6.40
2019-02-25T16:49:47.423Z,6.30
2019-02-25T16:52:18.019Z,6.20
2019-02-25T16:54:47.992Z,6.10
2019-02-25T16:57:18.576Z,6.00
2019-02-25T16:59:48.639Z,6.00
2019-02-25T17:02:18.091Z,5.90
2019-02-25T17:04:47.560Z,5.80
2019-02-25T17:07:18.295Z,5.70
2019-02-25T17:09:48.304Z,5.70
2019-02-25T17:12:17.739Z,5.70
2019-02-25T17:14:47.287Z,5.60
2019-02-25T17:17:16.764Z,5.60
2019-02-25T17:19:46.324Z,5.60
2019-02-25T17:22:15.790Z,5.50
2019-02-25T17:24:45.256Z,5.50
2019-02-25T17:27:14.929Z,5.40
2019-02-25T17:29:44.455Z,5.40
2019-02-25T17:32:14.608Z,5.40
2019-02-25T17:34:45.036Z,5.40
2019-02-25T17:37:15.368Z,5.30
2019-02-25T17:39:45.555Z,5.30
2019-02-25T17:42:15.532Z,5.30
2019-02-25T17:44:45.427Z,5.20
2019-02-25T17:49:46.153Z,5.20
2019-02-25T17:52:16.298Z,5.20
2019-02-25T17:54:46.938Z,5.20
2019-02-25T17:57:16.803Z,5.10
2019-02-25T17:59:46.970Z,5.10
2019-02-25T18:02:17.551Z,5.10
2019-02-25T18:04:47.603Z,5.10
2019-02-25T18:07:18.149Z,5.10
2019-02-25T18:09:47.600Z,5.10
2019-02-25T18:12:18.864Z,5.10
2019-02-25T18:14:48.542Z,5.10
2019-02-25T18:17:19.351Z,5.10
2019-02-25T18:19:50.183Z,5.00
2019-02-25T18:22:20.325Z,5.00
2019-02-25T18:24:50.249Z,5.10
2019-02-25T18:27:19.694Z,5.00
2019-02-25T18:29:50.386Z,5.10
2019-02-25T18:32:20.643Z,5.10
2019-02-25T18:34:52.628Z,5.10
2019-02-25T18:37:23.847Z,5.20
2019-02-25T18:39:54.369Z,5.20
2019-02-25T18:42:24.625Z,5.30
2019-02-25T18:44:54.159Z,5.30
2019-02-25T18:47:25.553Z,5.30
2019-02-25T18:49:56.153Z,5.40
2019-02-25T18:52:27.481Z,5.40
2019-02-25T18:54:57.116Z,5.40
2019-02-25T18:57:29.537Z,5.50
2019-02-25T19:00:01.430Z,5.50
2019-02-25T19:02:31.394Z,5.40
2019-02-25T19:05:02.194Z,5.40
2019-02-25T19:07:33.693Z,5.40
2019-02-25T19:10:03.263Z,5.50
2019-02-25T19:12:32.988Z,5.50
2019-02-25T19:15:06.708Z,5.50
2019-02-25T19:17:36.759Z,5.50
2019-02-25T19:20:06.900Z,5.50
2019-02-25T19:22:37.706Z,5.40
2019-02-25T19:25:10.109Z,5.40
2019-02-25T19:27:41.987Z,5.40
2019-02-25T19:30:11.793Z,5.40
2019-02-25T19:32:41.330Z,5.40
2019-02-25T19:35:11.159Z,5.40
2019-02-25T19:37:42.175Z,5.30
2019-02-25T19:40:14.921Z,5.30
2019-02-25T19:42:47.335Z,5.30
2019-02-25T19:45:15.830Z,5.20
2019-02-25T19:47:46.016Z,5.20
2019-02-25T19:50:15.590Z,5.20
2019-02-25T19:52:46.698Z,5.20
2019-02-25T19:55:18.329Z,5.20
2019-02-25T19:57:47.918Z,5.30
2019-02-25T20:00:22.345Z,5.30
2019-02-25T20:02:52.335Z,5.30
2019-02-25T20:05:24.011Z,5.30
2019-02-25T20:07:54.718Z,5.30
2019-02-25T20:10:25.151Z,5.30
2019-02-25T20:12:55.077Z,5.40
2019-02-25T20:15:25.393Z,5.40
2019-02-25T20:17:55.395Z,5.30
2019-02-25T20:20:27.228Z,5.40
2019-02-25T20:22:57.895Z,5.40
2019-02-25T20:25:28.748Z,5.30
2019-02-25T20:28:00.351Z,5.30
2019-02-25T20:30:30.593Z,5.30
2019-02-25T20:33:01.258Z,5.30
2019-02-25T20:35:31.704Z,5.20
2019-02-25T20:38:04.631Z,5.20
2019-02-25T20:40:33.046Z,5.20
2019-02-25T20:43:03.242Z,5.20
2019-02-25T20:45:35.055Z,5.30
2019-02-25T20:48:04.337Z,5.20
2019-02-25T20:50:34.304Z,5.30
2019-02-25T20:53:06.513Z,5.20
2019-02-25T20:55:36.358Z,5.30
2019-02-25T20:58:06.116Z,5.20
2019-02-25T21:00:39.058Z,5.20
2019-02-25T21:03:06.721Z,5.20
2019-02-25T21:05:36.173Z,5.20
2019-02-25T21:08:05.841Z,5.20
2019-02-25T21:10:35.712Z,5.20
2019-02-25T21:13:05.252Z,5.10
2019-02-25T21:15:36.402Z,5.10
2019-02-25T21:18:07.705Z,5.10
2019-02-25T21:20:37.253Z,5.10
2019-02-25T21:23:08.533Z,5.00
2019-02-25T21:25:38.659Z,5.00
2019-02-25T21:28:11.166Z,5.00
2019-02-25T21:30:41.818Z,4.90
2019-02-25T21:33:13.331Z,4.80
2019-02-25T21:35:42.520Z,4.80
2019-02-25T21:38:12.081Z,4.70
2019-02-25T21:40:41.523Z,4.70
2019-02-25T21:43:14.442Z,4.70
2019-02-25T21:45:46.070Z,4.60
2019-02-25T21:48:13.239Z,4.60
2019-02-25T21:50:42.762Z,4.60
2019-02-25T21:53:14.328Z,4.60
2019-02-25T21:55:43.353Z,4.60
2019-02-25T21:58:12.815Z,4.60
2019-02-25T22:00:42.295Z,4.70
2019-02-25T22:03:13.192Z,4.70
2019-02-25T22:05:43.027Z,4.80
2019-02-25T22:08:12.524Z,4.90
2019-02-25T22:10:43.595Z,5.00
2019-02-25T22:13:14.122Z,5.10
2019-02-25T22:15:45.249Z,5.10
2019-02-25T22:18:14.889Z,5.20
2019-02-25T22:20:45.438Z,5.20
2019-02-25T22:23:15.602Z,5.30
2019-02-25T22:25:45.082Z,5.40
2019-02-25T22:28:14.569Z,5.50
2019-02-25T22:30:45.176Z,5.60
2019-02-25T22:33:26.679Z,5.60
2019-02-25T22:35:48.857Z,5.70
2019-02-25T22:38:17.987Z,5.70
2019-02-25T22:40:47.535Z,5.80
2019-02-25T22:43:18.547Z,5.80
2019-02-25T22:45:48.116Z,5.80
2019-02-25T22:48:20.758Z,5.80
2019-02-25T22:50:53.464Z,5.90
2019-02-25T22:53:21.096Z,5.80
2019-02-25T22:55:52.344Z,5.90
2019-02-25T22:58:22.555Z,5.90
2019-02-25T23:00:53.703Z,5.90
2019-02-25T23:03:25.762Z,5.90
2019-02-25T23:05:55.297Z,5.90
2019-02-25T23:08:26.039Z,5.90
2019-02-25T23:10:55.872Z,5.90
2019-02-25T23:13:27.479Z,5.90
2019-02-25T23:15:56.472Z,5.90
2019-02-25T23:18:28.059Z,5.90
2019-02-25T23:20:59.742Z,5.90
2019-02-25T23:23:28.743Z,5.90
2019-02-25T23:25:59.293Z,5.90
2019-02-25T23:28:30.491Z,5.90
2019-02-25T23:30:59.941Z,5.80
2019-02-25T23:33:29.412Z,5.80
2019-02-25T23:35:58.896Z,5.80
2019-02-25T23:38:28.357Z,5.80
2019-02-25T23:41:01.323Z,5.80
2019-02-25T23:43:29.005Z,5.90
2019-02-25T23:46:00.056Z,5.80
2019-02-25T23:48:32.895Z,5.80
2019-02-25T23:51:00.754Z,5.80
2019-02-25T23:53:31.123Z,5.80
2019-02-25T23:56:01.359Z,5.80
2019-02-25T23:58:30.841Z,5.80
